createdAt,value
2016-10-07T00:00:22.963Z,0
2016-10-07T00:01:23.050Z,0
2016-10-07T00:02:23.253Z,0
2016-10-07T00:03:22.934Z,0
2016-10-07T00:04:22.942Z,0
2016-10-07T00:05:22.919Z,0
2016-10-07T00:06:22.915Z,0
2016-10-07T00:07:22.913Z,0
2016-10-07T00:08:22.916Z,0
2016-10-07T00:09:22.892Z,0
2016-10-07T00:10:22.887Z,0
2016-10-07T00:11:22.881Z,0
2016-10-07T00:12:22.865Z,0
2016-10-07T00:13:22.858Z,0
2016-10-07T00:14:22.850Z,0
2016-10-07T00:15:22.859Z,0
2016-10-07T00:16:22.828Z,0
2016-10-07T00:17:22.820Z,0
2016-10-07T00:19:27.252Z,0
2016-10-07T00:20:23.883Z,0
2016-10-07T00:21:24.692Z,0
2016-10-07T00:22:23.254Z,0
2016-10-07T00:23:23.040Z,0
2016-10-07T00:24:22.767Z,0
2016-10-07T00:25:22.762Z,0
2016-10-07T00:26:22.754Z,0
2016-10-07T00:27:25.570Z,0
2016-10-07T00:29:23.905Z,0
2016-10-07T00:30:23.177Z,0
2016-10-07T00:31:24.332Z,0
2016-10-07T00:32:22.698Z,0
2016-10-07T00:33:22.694Z,0
2016-10-07T00:34:22.685Z,0
2016-10-07T00:35:22.687Z,0
2016-10-07T00:36:22.671Z,0
2016-10-07T00:37:22.666Z,0
2016-10-07T00:38:22.664Z,0
2016-10-07T00:39:22.638Z,0
2016-10-07T00:40:22.640Z,0
2016-10-07T00:41:22.639Z,0
2016-10-07T00:42:22.626Z,0
2016-10-07T00:43:22.642Z,0
2016-10-07T00:44:22.606Z,0
2016-10-07T00:45:22.603Z,0
2016-10-07T00:46:22.590Z,0
2016-10-07T00:47:22.585Z,0
2016-10-07T00:48:22.578Z,0
2016-10-07T00:49:22.567Z,0
2016-10-07T00:50:22.561Z,0
2016-10-07T00:51:22.559Z,0
2016-10-07T00:52:22.550Z,0
2016-10-07T00:53:22.541Z,0
2016-10-07T00:54:22.529Z,0
2016-10-07T00:55:22.520Z,0
2016-10-07T00:56:22.520Z,0
2016-10-07T00:57:22.505Z,0
2016-10-07T00:58:22.499Z,0
2016-10-07T00:59:22.482Z,0
2016-10-07T01:00:22.490Z,0
2016-10-07T01:01:22.475Z,0
2016-10-07T01:02:24.815Z,0
2016-10-07T01:03:25.254Z,0
2016-10-07T01:05:22.895Z,0
2016-10-07T01:06:22.441Z,0
2016-10-07T01:07:23.184Z,0
2016-10-07T01:08:22.669Z,0
2016-10-07T01:09:22.414Z,0
2016-10-07T01:10:22.462Z,0
2016-10-07T01:11:22.388Z,0
2016-10-07T01:12:23.841Z,0
2016-10-07T01:13:23.234Z,0
2016-10-07T01:14:23.071Z,0
2016-10-07T01:16:22.357Z,0
2016-10-07T01:17:22.961Z,0
2016-10-07T01:18:22.895Z,0
2016-10-07T01:19:22.490Z,0
2016-10-07T01:20:22.329Z,0
2016-10-07T01:21:22.314Z,0
2016-10-07T01:22:22.307Z,0
2016-10-07T01:23:22.542Z,0
2016-10-07T01:24:22.310Z,0
2016-10-07T01:25:22.288Z,0
2016-10-07T01:26:22.282Z,0
2016-10-07T01:27:22.271Z,0
2016-10-07T01:28:22.260Z,0
2016-10-07T01:29:22.257Z,0
2016-10-07T01:30:22.256Z,0
2016-10-07T01:31:22.248Z,0
2016-10-07T01:32:22.229Z,0
2016-10-07T01:33:22.226Z,0
2016-10-07T01:34:22.212Z,0
2016-10-07T01:35:22.222Z,0
2016-10-07T01:36:25.045Z,0
2016-10-07T01:37:24.556Z,0
2016-10-07T01:38:24.099Z,0
2016-10-07T01:39:23.641Z,0
2016-10-07T01:40:23.010Z,0
2016-10-07T01:41:23.476Z,0
2016-10-07T01:42:22.145Z,0
2016-10-07T01:43:22.146Z,0
2016-10-07T01:44:22.137Z,0
2016-10-07T01:45:22.124Z,0
2016-10-07T01:46:27.129Z,0
2016-10-07T01:47:24.903Z,0
2016-10-07T01:48:24.791Z,0
2016-10-07T01:49:23.606Z,0
2016-10-07T01:50:22.504Z,0
2016-10-07T01:51:22.082Z,0
2016-10-07T01:52:22.065Z,0
2016-10-07T01:53:22.069Z,0
2016-10-07T01:54:22.081Z,0
2016-10-07T01:55:22.048Z,0
2016-10-07T01:56:22.040Z,0
2016-10-07T01:57:22.028Z,0
2016-10-07T01:58:22.020Z,0
2016-10-07T01:59:22.015Z,0
2016-10-07T02:00:22.001Z,0
2016-10-07T02:01:21.994Z,0
2016-10-07T02:02:21.992Z,0
2016-10-07T02:03:21.979Z,0
2016-10-07T02:04:21.969Z,0
2016-10-07T02:05:21.959Z,0
2016-10-07T02:06:21.964Z,0
2016-10-07T02:07:21.946Z,0
2016-10-07T02:08:21.939Z,0
2016-10-07T02:09:21.937Z,0
2016-10-07T02:10:21.920Z,0
2016-10-07T02:11:21.920Z,0
2016-10-07T02:12:21.913Z,0
2016-10-07T02:13:21.899Z,0
2016-10-07T02:14:21.894Z,0
2016-10-07T02:15:21.877Z,0
2016-10-07T02:16:21.871Z,0
2016-10-07T02:17:21.862Z,0
2016-10-07T02:18:21.849Z,0
2016-10-07T02:19:21.847Z,0
2016-10-07T02:20:21.831Z,0
2016-10-07T02:21:36.848Z,0
2016-10-07T02:22:23.273Z,0
2016-10-07T02:23:37.032Z,0
2016-10-07T02:24:37.621Z,0
2016-10-07T02:25:22.755Z,0
2016-10-07T02:26:21.795Z,0
2016-10-07T02:27:21.877Z,0
2016-10-07T02:28:21.778Z,0
2016-10-07T02:29:21.762Z,0
2016-10-07T02:32:22.340Z,0
2016-10-07T02:33:21.739Z,0
2016-10-07T02:34:21.729Z,0
2016-10-07T02:35:22.713Z,0
2016-10-07T02:36:21.710Z,0
2016-10-07T02:37:21.705Z,0
2016-10-07T02:38:21.700Z,0
2016-10-07T02:39:21.686Z,0
2016-10-07T02:40:21.680Z,0
2016-10-07T02:41:21.663Z,0
2016-10-07T02:42:21.661Z,0
2016-10-07T02:43:21.654Z,0
2016-10-07T02:44:21.651Z,0
2016-10-07T02:45:21.641Z,0
2016-10-07T02:46:21.635Z,0
2016-10-07T02:47:21.616Z,0
2016-10-07T02:48:21.622Z,0
2016-10-07T02:49:21.612Z,0
2016-10-07T02:50:21.603Z,0
2016-10-07T02:51:21.588Z,0
2016-10-07T02:52:21.592Z,0
2016-10-07T02:53:21.584Z,0
2016-10-07T02:54:21.564Z,0
2016-10-07T02:55:24.864Z,0
2016-10-07T02:56:25.014Z,0
2016-10-07T02:57:22.094Z,0
2016-10-07T02:58:22.362Z,0
2016-10-07T02:59:21.526Z,0
2016-10-07T03:00:22.296Z,0
2016-10-07T03:01:21.521Z,0
2016-10-07T03:02:21.497Z,0
2016-10-07T03:03:21.484Z,0
2016-10-07T03:04:23.473Z,0
2016-10-07T03:05:24.412Z,0
2016-10-07T03:06:23.218Z,0
2016-10-07T03:07:22.935Z,0
2016-10-07T03:08:22.515Z,0
2016-10-07T03:09:21.745Z,0
2016-10-07T03:10:21.435Z,0
2016-10-07T03:11:21.433Z,0
2016-10-07T03:12:21.430Z,0
2016-10-07T03:13:21.425Z,0
2016-10-07T03:14:21.406Z,0
2016-10-07T03:15:21.404Z,0
2016-10-07T03:16:21.386Z,0
2016-10-07T03:17:21.393Z,0
2016-10-07T03:18:21.371Z,0
2016-10-07T03:19:21.369Z,0
2016-10-07T03:20:21.362Z,0
2016-10-07T03:21:21.658Z,0
2016-10-07T03:22:21.342Z,0
2016-10-07T03:23:21.360Z,0
2016-10-07T03:24:21.335Z,0
2016-10-07T03:25:21.316Z,0
2016-10-07T03:26:21.430Z,0
2016-10-07T03:27:21.304Z,0
2016-10-07T03:28:21.606Z,0
2016-10-07T03:29:21.296Z,0
2016-10-07T03:30:21.279Z,0
2016-10-07T03:31:21.278Z,0
2016-10-07T03:32:21.564Z,0
2016-10-07T03:33:21.258Z,0
2016-10-07T03:34:21.249Z,0
2016-10-07T03:35:21.249Z,0
2016-10-07T03:36:21.230Z,0
2016-10-07T03:37:21.224Z,0
2016-10-07T03:38:21.229Z,0
2016-10-07T03:39:22.961Z,0
2016-10-07T03:40:22.101Z,0
2016-10-07T03:41:36.106Z,0
2016-10-07T03:42:21.948Z,0
2016-10-07T03:43:36.444Z,0
2016-10-07T03:44:22.117Z,0
2016-10-07T03:45:21.475Z,0
2016-10-07T03:46:21.159Z,0
2016-10-07T03:47:21.152Z,0
2016-10-07T03:48:36.464Z,0
2016-10-07T03:49:21.577Z,0
2016-10-07T03:50:37.644Z,0
2016-10-07T03:51:21.671Z,0
2016-10-07T03:52:21.104Z,0
2016-10-07T03:53:21.101Z,0
2016-10-07T03:54:21.088Z,0
2016-10-07T03:55:21.291Z,0
2016-10-07T03:56:21.085Z,0
2016-10-07T03:57:21.079Z,0
2016-10-07T03:58:21.071Z,0
2016-10-07T03:59:21.055Z,0
2016-10-07T04:00:21.050Z,0
2016-10-07T04:01:21.339Z,0
2016-10-07T04:02:21.039Z,0
2016-10-07T04:03:21.022Z,0
2016-10-07T04:04:21.009Z,0
2016-10-07T04:05:21.000Z,0
2016-10-07T04:06:21.004Z,0
2016-10-07T04:07:20.984Z,0
2016-10-07T04:08:20.986Z,0
2016-10-07T04:09:20.968Z,0
2016-10-07T04:10:20.967Z,0
2016-10-07T04:11:20.975Z,0
2016-10-07T04:12:20.949Z,0
2016-10-07T04:14:22.528Z,0
2016-10-07T04:15:23.883Z,0
2016-10-07T04:16:21.719Z,0
2016-10-07T04:17:21.594Z,0
2016-10-07T04:18:20.902Z,0
2016-10-07T04:19:20.899Z,0
2016-10-07T04:20:20.891Z,0
2016-10-07T04:21:20.888Z,0
2016-10-07T04:22:23.786Z,0
2016-10-07T04:23:25.851Z,0
2016-10-07T04:24:22.004Z,0
2016-10-07T04:25:22.377Z,0
2016-10-07T04:26:20.860Z,0
2016-10-07T04:27:20.839Z,0
2016-10-07T04:28:20.832Z,0
2016-10-07T04:29:21.124Z,0
2016-10-07T04:30:21.109Z,0
2016-10-07T04:31:20.796Z,0
2016-10-07T04:32:20.795Z,0
2016-10-07T04:33:20.794Z,0
2016-10-07T04:34:20.785Z,0
2016-10-07T04:35:20.787Z,0
2016-10-07T04:36:20.774Z,0
2016-10-07T04:37:20.757Z,0
2016-10-07T04:38:20.738Z,0
2016-10-07T04:39:20.741Z,0
2016-10-07T04:40:20.733Z,0
2016-10-07T04:41:20.728Z,0
2016-10-07T04:42:20.725Z,0
2016-10-07T04:43:20.717Z,0
2016-10-07T04:44:21.004Z,0
2016-10-07T04:45:20.688Z,0
2016-10-07T04:46:20.684Z,0
2016-10-07T04:47:20.683Z,0
2016-10-07T04:48:20.674Z,0
2016-10-07T04:49:20.664Z,0
2016-10-07T04:50:20.650Z,0
2016-10-07T04:51:20.648Z,0
2016-10-07T04:52:20.642Z,0
2016-10-07T04:53:20.638Z,0
2016-10-07T04:54:20.622Z,0
2016-10-07T04:55:20.625Z,0
2016-10-07T04:56:20.605Z,0
2016-10-07T04:59:21.236Z,0
2016-10-07T05:01:20.579Z,0
2016-10-07T05:02:21.017Z,0
2016-10-07T05:03:20.909Z,0
2016-10-07T05:04:20.556Z,0
2016-10-07T05:05:20.541Z,0
2016-10-07T05:07:36.485Z,0
2016-10-07T05:08:22.319Z,0
2016-10-07T05:09:35.737Z,0
2016-10-07T05:10:21.357Z,0
2016-10-07T05:11:20.491Z,0
2016-10-07T05:12:20.484Z,0
2016-10-07T05:13:20.480Z,5
2016-10-07T05:14:20.466Z,5
2016-10-07T05:15:20.466Z,5
2016-10-07T05:16:20.447Z,5
2016-10-07T05:17:20.452Z,5
2016-10-07T05:18:20.455Z,5
2016-10-07T05:19:20.433Z,5
2016-10-07T05:20:20.429Z,5
2016-10-07T05:21:20.415Z,5
2016-10-07T05:22:20.420Z,5
2016-10-07T05:23:20.401Z,10
2016-10-07T05:24:20.386Z,10
2016-10-07T05:25:20.390Z,10
2016-10-07T05:26:20.377Z,15
2016-10-07T05:27:20.375Z,15
2016-10-07T05:28:20.365Z,20
2016-10-07T05:29:20.356Z,20
2016-10-07T05:30:20.350Z,20
2016-10-07T05:31:23.377Z,20
2016-10-07T05:32:22.592Z,20
2016-10-07T05:33:23.144Z,20
2016-10-07T05:34:21.918Z,20
2016-10-07T05:35:22.652Z,20
2016-10-07T05:36:20.390Z,25
2016-10-07T05:37:20.302Z,30
2016-10-07T05:38:20.290Z,30
2016-10-07T05:39:20.278Z,35
2016-10-07T05:41:24.635Z,40
2016-10-07T05:42:21.873Z,45
2016-10-07T05:43:21.307Z,50
2016-10-07T05:44:22.574Z,50
2016-10-07T05:45:20.692Z,50
2016-10-07T05:46:20.674Z,50
2016-10-07T05:47:20.225Z,45
2016-10-07T05:48:20.212Z,40
2016-10-07T05:49:20.199Z,40
2016-10-07T05:50:20.197Z,45
2016-10-07T05:51:20.198Z,45
2016-10-07T05:52:20.179Z,50
2016-10-07T05:53:20.171Z,50
2016-10-07T05:54:20.158Z,55
2016-10-07T05:55:20.153Z,60
2016-10-07T05:56:20.145Z,60
2016-10-07T05:57:20.156Z,65
2016-10-07T05:58:20.128Z,60
2016-10-07T05:59:20.119Z,70
2016-10-07T06:00:20.115Z,75
2016-10-07T06:01:20.102Z,85
2016-10-07T06:02:20.104Z,85
2016-10-07T06:03:20.097Z,85
2016-10-07T06:04:20.096Z,85
2016-10-07T06:05:20.080Z,80
2016-10-07T06:06:20.067Z,80
2016-10-07T06:07:20.073Z,85
2016-10-07T06:08:20.069Z,85
2016-10-07T06:09:20.052Z,90
2016-10-07T06:10:20.071Z,90
2016-10-07T06:11:20.029Z,105
2016-10-07T06:12:20.019Z,120
2016-10-07T06:13:20.012Z,130
2016-10-07T06:14:20.007Z,120
2016-10-07T06:15:20.904Z,110
2016-10-07T06:16:21.555Z,110
2016-10-07T06:17:20.737Z,115
2016-10-07T06:18:20.880Z,115
2016-10-07T06:19:20.424Z,115
2016-10-07T06:20:19.968Z,115
2016-10-07T06:21:20.309Z,110
2016-10-07T06:22:20.516Z,100
2016-10-07T06:23:20.101Z,85
2016-10-07T06:24:19.947Z,80
2016-10-07T06:25:35.446Z,80
2016-10-07T06:26:35.233Z,90
2016-10-07T06:27:35.933Z,100
2016-10-07T06:29:20.048Z,125
2016-10-07T06:30:21.161Z,155
2016-10-07T06:31:20.241Z,180
2016-10-07T06:32:19.883Z,195
2016-10-07T06:33:20.184Z,205
2016-10-07T06:34:19.864Z,225
2016-10-07T06:35:19.853Z,235
2016-10-07T06:36:19.848Z,240
2016-10-07T06:37:19.850Z,250
2016-10-07T06:38:19.853Z,245
2016-10-07T06:39:19.831Z,260
2016-10-07T06:40:19.822Z,285
2016-10-07T06:41:20.129Z,290
2016-10-07T06:42:19.809Z,280
2016-10-07T06:43:20.107Z,270
2016-10-07T06:44:19.794Z,250
2016-10-07T06:45:19.793Z,240
2016-10-07T06:46:19.787Z,220
2016-10-07T06:47:19.776Z,205
2016-10-07T06:48:20.073Z,185
2016-10-07T06:49:21.285Z,180
2016-10-07T06:50:21.446Z,195
2016-10-07T06:51:23.013Z,210
2016-10-07T06:52:22.909Z,225
2016-10-07T06:53:19.739Z,230
2016-10-07T06:54:20.425Z,220
2016-10-07T06:55:19.737Z,220
2016-10-07T06:56:19.714Z,215
2016-10-07T06:57:19.711Z,215
2016-10-07T06:58:19.710Z,210
2016-10-07T06:59:21.980Z,210
2016-10-07T07:00:22.321Z,220
2016-10-07T07:01:22.646Z,205
2016-10-07T07:02:19.842Z,215
2016-10-07T07:03:21.122Z,250
2016-10-07T07:04:19.906Z,255
2016-10-07T07:05:20.050Z,265
2016-10-07T07:06:19.824Z,285
2016-10-07T07:07:19.643Z,310
2016-10-07T07:08:19.648Z,290
2016-10-07T07:09:19.637Z,280
2016-10-07T07:10:19.633Z,265
2016-10-07T07:11:19.632Z,255
2016-10-07T07:12:19.628Z,245
2016-10-07T07:13:19.612Z,240
2016-10-07T07:14:19.597Z,235
2016-10-07T07:15:19.587Z,230
2016-10-07T07:16:19.596Z,230
2016-10-07T07:17:19.597Z,235
2016-10-07T07:18:19.579Z,250
2016-10-07T07:19:19.573Z,270
2016-10-07T07:20:19.569Z,290
2016-10-07T07:21:19.566Z,300
2016-10-07T07:22:19.558Z,330
2016-10-07T07:23:19.556Z,350
2016-10-07T07:24:19.550Z,360
2016-10-07T07:25:19.534Z,400
2016-10-07T07:26:19.535Z,435
2016-10-07T07:27:19.528Z,360
2016-10-07T07:28:19.518Z,340
2016-10-07T07:29:19.509Z,340
2016-10-07T07:30:19.504Z,335
2016-10-07T07:31:19.502Z,330
2016-10-07T07:32:19.496Z,330
2016-10-07T07:33:19.493Z,345
2016-10-07T07:34:34.748Z,430
2016-10-07T07:36:04.877Z,380
2016-10-07T07:36:19.971Z,380
2016-10-07T07:37:19.525Z,370
2016-10-07T07:38:19.474Z,345
2016-10-07T07:39:19.470Z,330
2016-10-07T07:40:19.708Z,300
2016-10-07T07:41:19.452Z,275
2016-10-07T07:42:19.451Z,275
2016-10-07T07:45:35.105Z,315
2016-10-07T07:46:19.933Z,305
2016-10-07T07:47:20.072Z,300
2016-10-07T07:48:20.073Z,285
2016-10-07T07:49:19.403Z,280
2016-10-07T07:50:19.407Z,275
2016-10-07T07:51:19.658Z,260
2016-10-07T07:52:19.405Z,245
2016-10-07T07:53:19.397Z,245
2016-10-07T07:54:19.393Z,250
2016-10-07T07:55:19.386Z,260
2016-10-07T07:56:19.626Z,280
2016-10-07T07:57:19.373Z,295
2016-10-07T07:58:19.364Z,295
2016-10-07T07:59:19.373Z,290
2016-10-07T08:00:19.362Z,280
2016-10-07T08:01:19.660Z,265
2016-10-07T08:02:19.350Z,250
2016-10-07T08:03:19.347Z,245
2016-10-07T08:04:19.363Z,245
2016-10-07T08:05:19.338Z,250
2016-10-07T08:06:19.329Z,245
2016-10-07T08:07:19.353Z,255
2016-10-07T08:09:23.585Z,280
2016-10-07T08:10:21.239Z,260
2016-10-07T08:11:22.038Z,215
2016-10-07T08:12:19.317Z,180
2016-10-07T08:13:20.347Z,175
2016-10-07T08:14:19.299Z,175
2016-10-07T08:15:19.306Z,190
2016-10-07T08:16:19.298Z,200
2016-10-07T08:17:36.056Z,185
2016-10-07T08:18:23.195Z,180
2016-10-07T08:19:21.274Z,175
2016-10-07T08:20:19.568Z,165
2016-10-07T08:21:19.764Z,160
2016-10-07T08:22:19.600Z,160
2016-10-07T08:23:19.263Z,155
2016-10-07T08:24:19.253Z,145
2016-10-07T08:25:19.250Z,145
2016-10-07T08:26:19.243Z,145
2016-10-07T08:27:19.241Z,140
2016-10-07T08:28:19.227Z,140
2016-10-07T08:29:19.229Z,135
2016-10-07T08:30:19.222Z,130
2016-10-07T08:31:19.219Z,130
2016-10-07T08:32:19.211Z,135
2016-10-07T08:33:19.208Z,135
2016-10-07T08:34:19.196Z,145
2016-10-07T08:35:19.191Z,155
2016-10-07T08:36:19.193Z,160
2016-10-07T08:37:19.183Z,155
2016-10-07T08:38:19.181Z,160
2016-10-07T08:39:19.164Z,160
2016-10-07T08:40:19.174Z,175
2016-10-07T08:41:19.168Z,185
2016-10-07T08:42:19.142Z,190
2016-10-07T08:43:19.144Z,190
2016-10-07T08:44:19.154Z,195
2016-10-07T08:45:19.134Z,200
2016-10-07T08:46:19.131Z,215
2016-10-07T08:47:19.128Z,225
2016-10-07T08:48:19.120Z,235
2016-10-07T08:49:19.108Z,245
2016-10-07T08:50:19.104Z,250
2016-10-07T08:51:19.107Z,250
2016-10-07T08:52:34.459Z,255
2016-10-07T08:53:34.058Z,260
2016-10-07T08:54:35.548Z,260
2016-10-07T08:55:20.331Z,260
2016-10-07T08:56:34.050Z,255
2016-10-07T08:57:20.265Z,255
2016-10-07T08:58:19.765Z,250
2016-10-07T08:59:19.053Z,245
2016-10-07T09:00:19.052Z,240
2016-10-07T09:01:48.870Z,240
2016-10-07T09:03:49.361Z,245
2016-10-07T09:04:34.743Z,245
2016-10-07T09:05:34.036Z,245
2016-10-07T09:06:19.007Z,245
2016-10-07T09:07:19.266Z,250
2016-10-07T09:08:19.005Z,250
2016-10-07T09:09:19.103Z,245
2016-10-07T09:10:18.997Z,250
2016-10-07T09:11:19.002Z,250
2016-10-07T09:12:18.990Z,250
2016-10-07T09:13:18.976Z,250
2016-10-07T09:14:18.966Z,250
2016-10-07T09:15:18.957Z,250
2016-10-07T09:16:18.967Z,260
2016-10-07T09:17:18.957Z,270
2016-10-07T09:18:18.953Z,275
2016-10-07T09:19:18.941Z,295
2016-10-07T09:20:18.945Z,305
2016-10-07T09:21:18.930Z,310
2016-10-07T09:22:18.928Z,310
2016-10-07T09:23:19.227Z,310
2016-10-07T09:24:18.909Z,310
2016-10-07T09:25:18.917Z,300
2016-10-07T09:27:20.330Z,275
2016-10-07T09:28:20.560Z,265
2016-10-07T09:29:19.275Z,260
2016-10-07T09:30:19.784Z,260
2016-10-07T09:31:19.469Z,260
2016-10-07T09:32:18.930Z,260
2016-10-07T09:33:18.868Z,265
2016-10-07T09:34:18.860Z,270
2016-10-07T09:36:23.436Z,280
2016-10-07T09:37:20.503Z,295
2016-10-07T09:38:19.647Z,300
2016-10-07T09:39:20.667Z,310
2016-10-07T09:40:18.837Z,310
2016-10-07T09:41:18.820Z,310
2016-10-07T09:42:18.823Z,310
2016-10-07T09:43:18.816Z,320
2016-10-07T09:44:18.814Z,325
2016-10-07T09:45:18.804Z,335
2016-10-07T09:46:18.795Z,355
2016-10-07T09:47:18.801Z,365
2016-10-07T09:48:18.797Z,365
2016-10-07T09:49:18.801Z,360
2016-10-07T09:50:18.802Z,355
2016-10-07T09:51:18.770Z,360
2016-10-07T09:52:18.766Z,365
2016-10-07T09:53:18.768Z,375
2016-10-07T09:54:18.761Z,380
2016-10-07T09:55:18.754Z,395
2016-10-07T09:56:18.747Z,405
2016-10-07T09:57:18.741Z,415
2016-10-07T09:58:18.752Z,410
2016-10-07T09:59:18.751Z,400
2016-10-07T10:00:18.745Z,395
2016-10-07T10:01:18.728Z,410
2016-10-07T10:02:19.046Z,430
2016-10-07T10:03:18.723Z,470
2016-10-07T10:04:19.018Z,495
2016-10-07T10:05:18.706Z,510
2016-10-07T10:06:18.708Z,520
2016-10-07T10:07:18.708Z,530
2016-10-07T10:08:18.696Z,535
2016-10-07T10:09:18.693Z,545
2016-10-07T10:13:34.094Z,550
2016-10-07T10:14:20.128Z,550
2016-10-07T10:15:18.767Z,550
2016-10-07T10:16:19.130Z,545
2016-10-07T10:17:18.815Z,535
2016-10-07T10:18:18.649Z,530
2016-10-07T10:19:19.003Z,525
2016-10-07T10:20:33.570Z,515
2016-10-07T10:22:33.563Z,495
2016-10-07T10:23:20.089Z,495
2016-10-07T10:24:19.138Z,505
2016-10-07T10:25:18.632Z,515
2016-10-07T10:26:18.628Z,520
2016-10-07T10:27:18.634Z,520
2016-10-07T10:28:18.930Z,515
2016-10-07T10:29:18.618Z,515
2016-10-07T10:30:18.621Z,525
2016-10-07T10:31:18.618Z,520
2016-10-07T10:32:18.607Z,525
2016-10-07T10:33:18.611Z,505
2016-10-07T10:34:18.602Z,495
2016-10-07T10:35:18.599Z,490
2016-10-07T10:36:18.594Z,490
2016-10-07T10:37:18.603Z,475
2016-10-07T10:38:18.600Z,470
2016-10-07T10:39:18.601Z,475
2016-10-07T10:40:18.598Z,475
2016-10-07T10:41:18.588Z,470
2016-10-07T10:42:18.582Z,470
2016-10-07T10:43:18.586Z,470
2016-10-07T10:44:20.694Z,475
2016-10-07T10:45:20.523Z,480
2016-10-07T10:46:21.775Z,490
2016-10-07T10:47:21.334Z,505
2016-10-07T10:48:19.934Z,510
2016-10-07T10:49:18.566Z,505
2016-10-07T10:50:18.875Z,495
2016-10-07T10:51:18.560Z,490
2016-10-07T10:52:18.555Z,495
2016-10-07T10:53:21.685Z,500
2016-10-07T10:55:21.431Z,505
2016-10-07T10:56:21.467Z,510
2016-10-07T10:57:19.330Z,515
2016-10-07T10:58:19.411Z,535
2016-10-07T10:59:18.554Z,560
2016-10-07T11:00:18.542Z,560
2016-10-07T11:01:18.544Z,565
2016-10-07T11:02:18.552Z,570
2016-10-07T11:03:18.529Z,550
2016-10-07T11:04:18.527Z,530
2016-10-07T11:05:18.530Z,515
2016-10-07T11:06:18.539Z,505
2016-10-07T11:07:18.526Z,485
2016-10-07T11:08:18.526Z,455
2016-10-07T11:09:18.515Z,415
2016-10-07T11:10:18.512Z,380
2016-10-07T11:11:18.514Z,360
2016-10-07T11:12:18.507Z,340
2016-10-07T11:13:18.516Z,325
2016-10-07T11:14:18.499Z,330
2016-10-07T11:15:18.502Z,335
2016-10-07T11:16:18.496Z,360
2016-10-07T11:17:18.488Z,390
2016-10-07T11:18:18.488Z,415
2016-10-07T11:19:18.489Z,455
2016-10-07T11:20:18.486Z,495
2016-10-07T11:21:18.475Z,515
2016-10-07T11:22:18.493Z,515
2016-10-07T11:23:18.482Z,465
2016-10-07T11:24:18.482Z,410
2016-10-07T11:25:18.476Z,380
2016-10-07T11:26:18.473Z,385
2016-10-07T11:27:18.883Z,405
2016-10-07T11:28:18.468Z,420
2016-10-07T11:29:33.470Z,430
2016-10-07T11:30:34.475Z,440
2016-10-07T11:31:19.204Z,440
2016-10-07T11:32:33.515Z,460
2016-10-07T11:33:19.200Z,475
2016-10-07T11:34:18.447Z,500
2016-10-07T11:35:18.934Z,505
2016-10-07T11:36:18.443Z,495
2016-10-07T11:37:18.433Z,505
2016-10-07T11:40:34.394Z,550
2016-10-07T11:41:33.336Z,550
2016-10-07T11:42:33.891Z,565
2016-10-07T11:43:19.468Z,565
2016-10-07T11:44:18.420Z,540
2016-10-07T11:45:18.409Z,520
2016-10-07T11:46:18.407Z,505
2016-10-07T11:47:18.412Z,510
2016-10-07T11:48:18.407Z,530
2016-10-07T11:49:18.388Z,555
2016-10-07T11:50:18.402Z,580
2016-10-07T11:51:18.398Z,605
2016-10-07T11:52:18.384Z,635
2016-10-07T11:53:18.393Z,660
2016-10-07T11:54:18.381Z,670
2016-10-07T11:55:18.393Z,630
2016-10-07T11:56:18.385Z,550
2016-10-07T11:57:18.378Z,450
2016-10-07T11:58:18.377Z,405
2016-10-07T11:59:18.372Z,380
2016-10-07T12:00:18.376Z,370
2016-10-07T12:01:18.368Z,375
2016-10-07T12:02:18.373Z,370
2016-10-07T12:03:20.310Z,350
2016-10-07T12:04:22.624Z,360
2016-10-07T12:05:19.815Z,380
2016-10-07T12:06:20.380Z,415
2016-10-07T12:07:19.665Z,480
2016-10-07T12:08:18.353Z,540
2016-10-07T12:09:18.848Z,585
2016-10-07T12:10:18.349Z,605
2016-10-07T12:11:18.361Z,570
2016-10-07T12:13:22.355Z,505
2016-10-07T12:14:20.079Z,485
2016-10-07T12:15:21.036Z,465
2016-10-07T12:16:18.332Z,455
2016-10-07T12:17:18.351Z,460
2016-10-07T12:18:18.340Z,460
2016-10-07T12:19:18.539Z,460
2016-10-07T12:20:18.396Z,455
2016-10-07T12:21:18.330Z,460
2016-10-07T12:22:18.338Z,470
2016-10-07T12:23:18.321Z,455
2016-10-07T12:24:18.321Z,445
2016-10-07T12:25:18.314Z,440
2016-10-07T12:26:18.312Z,435
2016-10-07T12:27:33.596Z,455
2016-10-07T12:28:18.309Z,475
2016-10-07T12:29:18.307Z,485
2016-10-07T12:30:18.307Z,485
2016-10-07T12:31:18.307Z,465
2016-10-07T12:32:18.298Z,430
2016-10-07T12:33:18.305Z,405
2016-10-07T12:34:18.284Z,380
2016-10-07T12:35:18.292Z,340
2016-10-07T12:36:18.289Z,315
2016-10-07T12:37:18.292Z,305
2016-10-07T12:38:18.289Z,310
2016-10-07T12:39:18.278Z,305
2016-10-07T12:40:18.281Z,290
2016-10-07T12:41:18.275Z,275
2016-10-07T12:42:18.280Z,260
2016-10-07T12:43:18.262Z,265
2016-10-07T12:44:18.574Z,300
2016-10-07T12:45:18.265Z,335
2016-10-07T12:46:18.273Z,355
2016-10-07T12:47:33.724Z,360
2016-10-07T12:48:33.976Z,375
2016-10-07T12:49:33.975Z,370
2016-10-07T12:50:19.249Z,335
2016-10-07T12:51:20.103Z,305
2016-10-07T12:52:18.243Z,275
2016-10-07T12:53:18.942Z,255
2016-10-07T12:54:18.242Z,255
2016-10-07T12:55:18.239Z,270
2016-10-07T12:57:49.063Z,270
2016-10-07T12:58:34.097Z,255
2016-10-07T12:59:18.827Z,240
2016-10-07T13:00:18.224Z,225
2016-10-07T13:01:18.215Z,220
2016-10-07T13:02:18.208Z,230
2016-10-07T13:03:18.215Z,240
2016-10-07T13:04:18.213Z,265
2016-10-07T13:05:18.207Z,295
2016-10-07T13:06:18.201Z,315
2016-10-07T13:07:18.200Z,330
2016-10-07T13:08:18.193Z,345
2016-10-07T13:09:18.187Z,345
2016-10-07T13:10:18.194Z,340
2016-10-07T13:11:18.185Z,345
2016-10-07T13:12:18.174Z,340
2016-10-07T13:13:18.179Z,340
2016-10-07T13:14:18.174Z,335
2016-10-07T13:15:18.168Z,330
2016-10-07T13:16:18.175Z,325
2016-10-07T13:17:18.161Z,320
2016-10-07T13:18:18.158Z,325
2016-10-07T13:19:18.157Z,335
2016-10-07T13:20:18.454Z,350
2016-10-07T13:21:21.321Z,360
2016-10-07T13:22:19.651Z,360
2016-10-07T13:23:19.411Z,355
2016-10-07T13:24:19.887Z,355
2016-10-07T13:25:18.186Z,350
2016-10-07T13:26:18.130Z,345
2016-10-07T13:27:18.126Z,340
2016-10-07T13:28:18.126Z,340
2016-10-07T13:29:18.119Z,345
2016-10-07T13:30:20.246Z,360
2016-10-07T13:31:22.822Z,365
2016-10-07T13:32:19.407Z,365
2016-10-07T13:33:20.309Z,360
2016-10-07T13:34:18.881Z,360
2016-10-07T13:35:18.620Z,365
2016-10-07T13:36:18.124Z,365
2016-10-07T13:37:18.095Z,380
2016-10-07T13:38:18.095Z,385
2016-10-07T13:39:18.092Z,385
2016-10-07T13:40:18.083Z,385
2016-10-07T13:41:18.083Z,385
2016-10-07T13:42:18.091Z,385
2016-10-07T13:43:18.088Z,380
2016-10-07T13:44:18.087Z,385
2016-10-07T13:45:18.081Z,380
2016-10-07T13:46:18.065Z,375
2016-10-07T13:47:18.064Z,370
2016-10-07T13:48:18.067Z,350
2016-10-07T13:49:18.073Z,345
2016-10-07T13:50:18.065Z,345
2016-10-07T13:51:18.058Z,335
2016-10-07T13:52:18.053Z,335
2016-10-07T13:53:18.051Z,335
2016-10-07T13:54:18.044Z,335
2016-10-07T13:55:18.044Z,335
2016-10-07T13:56:18.040Z,340
2016-10-07T13:57:18.030Z,340
2016-10-07T13:58:18.339Z,340
2016-10-07T13:59:18.024Z,340
2016-10-07T14:00:18.027Z,335
2016-10-07T14:01:18.020Z,335
2016-10-07T14:02:18.015Z,335
2016-10-07T14:03:18.015Z,335
2016-10-07T14:04:18.004Z,335
2016-10-07T14:06:18.856Z,330
2016-10-07T14:07:19.505Z,325
2016-10-07T14:08:19.356Z,320
2016-10-07T14:09:33.314Z,310
2016-10-07T14:10:17.992Z,305
2016-10-07T14:11:17.998Z,295
2016-10-07T14:12:17.989Z,290
2016-10-07T14:13:17.987Z,290
2016-10-07T14:14:33.455Z,280
2016-10-07T14:16:19.133Z,280
2016-10-07T14:17:33.832Z,280
2016-10-07T14:18:33.241Z,280
2016-10-07T14:20:19.014Z,290
2016-10-07T14:21:17.962Z,285
2016-10-07T14:22:18.073Z,280
2016-10-07T14:23:17.941Z,275
2016-10-07T14:24:18.257Z,265
2016-10-07T14:25:17.942Z,255
2016-10-07T14:26:17.942Z,250
2016-10-07T14:27:17.946Z,250
2016-10-07T14:28:17.929Z,250
2016-10-07T14:29:17.934Z,245
2016-10-07T14:30:17.929Z,240
2016-10-07T14:31:17.921Z,235
2016-10-07T14:32:17.915Z,235
2016-10-07T14:33:17.911Z,230
2016-10-07T14:34:17.906Z,225
2016-10-07T14:35:17.910Z,220
2016-10-07T14:36:17.906Z,215
2016-10-07T14:37:17.905Z,205
2016-10-07T14:38:17.909Z,200
2016-10-07T14:40:19.417Z,190
2016-10-07T14:41:20.226Z,185